sensor_id;sensor_type;location;lat;lon;timestamp;temperature;humidity
9658;DHT22;4867;48.112;11.622;2023-02-16T00:00:31;0.10;99.90
9658;DHT22;4867;48.112;11.622;2023-02-16T00:02:58;0.10;99.90
9658;DHT22;4867;48.112;11.622;2023-02-16T00:05:31;0.00;99.90
9658;DHT22;4867;48.112;11.622;2023-02-16T00:07:59;0.10;99.90
9658;DHT22;4867;48.112;11.622;2023-02-16T00:10:31;0.10;99.90
9658;DHT22;4867;48.112;11.622;2023-02-16T00:12:59;0.10;99.90
9658;DHT22;4867;48.112;11.622;2023-02-16T00:15:45;0.10;99.90
9658;DHT22;4867;48.112;11.622;2023-02-16T00:18:18;0.10;99.90
9658;DHT22;4867;48.112;11.622;2023-02-16T00:20:49;0.10;99.90
9658;DHT22;4867;48.112;11.622;2023-02-16T00:23:16;0.00;99.90
9658;DHT22;4867;48.112;11.622;2023-02-16T00:25:43;0.00;99.90
9658;DHT22;4867;48.112;11.622;2023-02-16T00:28:14;0.00;99.90
9658;DHT22;4867;48.112;11.622;2023-02-16T00:30:44;0.00;99.90
9658;DHT22;4867;48.112;11.622;2023-02-16T00:33:14;0.00;99.90
9658;DHT22;4867;48.112;11.622;2023-02-16T00:35:42;0.00;99.90
9658;DHT22;4867;48.112;11.622;2023-02-16T00:38:11;0.00;99.90
9658;DHT22;4867;48.112;11.622;2023-02-16T00:40:40;0.00;99.90
9658;DHT22;4867;48.112;11.622;2023-02-16T00:43:23;-0.10;99.90
9658;DHT22;4867;48.112;11.622;2023-02-16T00:45:51;0.00;99.90
9658;DHT22;4867;48.112;11.622;2023-02-16T00:48:19;0.00;99.90
9658;DHT22;4867;48.112;11.622;2023-02-16T00:50:47;0.00;99.90
9658;DHT22;4867;48.112;11.622;2023-02-16T00:53:17;0.00;99.90
9658;DHT22;4867;48.112;11.622;2023-02-16T00:55:44;0.00;99.90
9658;DHT22;4867;48.112;11.622;2023-02-16T00:58:26;-0.10;99.90
9658;DHT22;4867;48.112;11.622;2023-02-16T01:01:16;0.00;99.90
9658;DHT22;4867;48.112;11.622;2023-02-16T01:03:47;-0.10;99.90
9658;DHT22;4867;48.112;11.622;2023-02-16T01:06:14;-0.20;99.90
9658;DHT22;4867;48.112;11.622;2023-02-16T01:09:11;-0.10;99.90
9658;DHT22;4867;48.112;11.622;2023-02-16T01:11:57;-0.10;99.90
9658;DHT22;4867;48.112;11.622;2023-02-16T01:14:25;-0.10;99.90
9658;DHT22;4867;48.112;11.622;2023-02-16T01:16:52;-0.10;99.90
9658;DHT22;4867;48.112;11.622;2023-02-16T01:19:20;-0.10;99.90
9658;DHT22;4867;48.112;11.622;2023-02-16T01:21:47;-0.20;99.90
9658;DHT22;4867;48.112;11.622;2023-02-16T01:24:14;-0.20;99.90
9658;DHT22;4867;48.112;11.622;2023-02-16T01:26:45;-0.10;99.90
9658;DHT22;4867;48.112;11.622;2023-02-16T01:29:17;-0.10;99.90
9658;DHT22;4867;48.112;11.622;2023-02-16T01:31:45;0.00;99.90
9658;DHT22;4867;48.112;11.622;2023-02-16T01:34:13;-0.10;99.90
9658;DHT22;4867;48.112;11.622;2023-02-16T01:36:45;-0.10;99.90
9658;DHT22;4867;48.112;11.622;2023-02-16T01:39:17;-0.10;99.90
9658;DHT22;4867;48.112;11.622;2023-02-16T01:44:45;-0.10;99.90
9658;DHT22;4867;48.112;11.622;2023-02-16T01:49:50;-0.10;99.90
9658;DHT22;4867;48.112;11.622;2023-02-16T01:57:55;-0.20;99.90
9658;DHT22;4867;48.112;11.622;2023-02-16T02:03:26;-0.20;99.90
9658;DHT22;4867;48.112;11.622;2023-02-16T02:06:17;-0.30;99.90
9658;DHT22;4867;48.112;11.622;2023-02-16T02:12:20;-0.30;99.90
9658;DHT22;4867;48.112;11.622;2023-02-16T02:14:49;-0.30;99.90
9658;DHT22;4867;48.112;11.622;2023-02-16T02:17:19;-0.40;99.90
9658;DHT22;4867;48.112;11.622;2023-02-16T02:26:28;-0.40;99.90
9658;DHT22;4867;48.112;11.622;2023-02-16T02:34:59;-0.50;99.90
9658;DHT22;4867;48.112;11.622;2023-02-16T02:43:25;-0.50;99.90
9658;DHT22;4867;48.112;11.622;2023-02-16T02:46:07;-0.50;99.90
9658;DHT22;4867;48.112;11.622;2023-02-16T02:48:36;-0.50;99.90
9658;DHT22;4867;48.112;11.622;2023-02-16T02:54:04;-0.60;99.90
9658;DHT22;4867;48.112;11.622;2023-02-16T02:56:58;-0.60;99.90
9658;DHT22;4867;48.112;11.622;2023-02-16T03:00:00;-0.60;99.90
9658;DHT22;4867;48.112;11.622;2023-02-16T03:02:49;-0.70;99.90
9658;DHT22;4867;48.112;11.622;2023-02-16T03:05:18;-0.70;99.90
9658;DHT22;4867;48.112;11.622;2023-02-16T03:07:48;-0.70;99.90
9658;DHT22;4867;48.112;11.622;2023-02-16T03:10:22;-0.70;99.90
9658;DHT22;4867;48.112;11.622;2023-02-16T03:13:21;-0.70;99.90
9658;DHT22;4867;48.112;11.622;2023-02-16T03:15:50;-0.70;99.90
9658;DHT22;4867;48.112;11.622;2023-02-16T03:18:24;-0.70;99.90
9658;DHT22;4867;48.112;11.622;2023-02-16T03:21:12;-0.70;99.90
9658;DHT22;4867;48.112;11.622;2023-02-16T03:24:00;-0.70;99.90
9658;DHT22;4867;48.112;11.622;2023-02-16T03:26:48;-0.70;99.90
9658;DHT22;4867;48.112;11.622;2023-02-16T03:29:36;-0.70;99.90
9658;DHT22;4867;48.112;11.622;2023-02-16T03:32:04;-0.70;99.90
9658;DHT22;4867;48.112;11.622;2023-02-16T03:34:34;-0.70;99.90
9658;DHT22;4867;48.112;11.622;2023-02-16T03:37:02;-0.80;99.90
9658;DHT22;4867;48.112;11.622;2023-02-16T03:39:31;-0.80;99.90
9658;DHT22;4867;48.112;11.622;2023-02-16T03:42:19;-0.80;99.90
9658;DHT22;4867;48.112;11.622;2023-02-16T03:44:48;-0.80;99.90
9658;DHT22;4867;48.112;11.622;2023-02-16T03:47:15;-0.80;99.90
9658;DHT22;4867;48.112;11.622;2023-02-16T03:49:42;-0.80;99.90
9658;DHT22;4867;48.112;11.622;2023-02-16T03:52:10;-0.70;99.90
9658;DHT22;4867;48.112;11.622;2023-02-16T03:54:37;-0.70;99.90
9658;DHT22;4867;48.112;11.622;2023-02-16T03:57:04;-0.80;99.90
9658;DHT22;4867;48.112;11.622;2023-02-16T03:59:31;-0.80;99.90
9658;DHT22;4867;48.112;11.622;2023-02-16T04:01:58;-0.80;99.90
9658;DHT22;4867;48.112;11.622;2023-02-16T04:04:26;-0.80;99.90
9658;DHT22;4867;48.112;11.622;2023-02-16T04:06:53;-0.80;99.90
9658;DHT22;4867;48.112;11.622;2023-02-16T04:09:20;-0.90;99.90
9658;DHT22;4867;48.112;11.622;2023-02-16T04:11:47;-0.90;99.90
9658;DHT22;4867;48.112;11.622;2023-02-16T04:14:33;-0.90;99.90
9658;DHT22;4867;48.112;11.622;2023-02-16T04:17:01;-0.90;99.90
9658;DHT22;4867;48.112;11.622;2023-02-16T04:19:29;-0.90;99.90
9658;DHT22;4867;48.112;11.622;2023-02-16T04:21:56;-1.00;99.90
9658;DHT22;4867;48.112;11.622;2023-02-16T04:24:23;-1.00;99.90
9658;DHT22;4867;48.112;11.622;2023-02-16T04:26:51;-1.00;99.90
9658;DHT22;4867;48.112;11.622;2023-02-16T04:29:18;-1.00;99.90
9658;DHT22;4867;48.112;11.622;2023-02-16T04:31:45;-1.00;99.90
9658;DHT22;4867;48.112;11.622;2023-02-16T04:34:13;-1.00;99.90
9658;DHT22;4867;48.112;11.622;2023-02-16T04:36:40;-1.00;99.90
9658;DHT22;4867;48.112;11.622;2023-02-16T04:39:07;-1.00;99.90
9658;DHT22;4867;48.112;11.622;2023-02-16T04:41:34;-1.00;99.90
9658;DHT22;4867;48.112;11.622;2023-02-16T04:44:01;-1.10;99.90
9658;DHT22;4867;48.112;11.622;2023-02-16T04:46:29;-1.10;99.90
9658;DHT22;4867;48.112;11.622;2023-02-16T04:48:56;-1.10;99.90
9658;DHT22;4867;48.112;11.622;2023-02-16T04:51:24;-1.10;99.90
9658;DHT22;4867;48.112;11.622;2023-02-16T04:53:51;-1.10;99.90
9658;DHT22;4867;48.112;11.622;2023-02-16T04:56:18;-1.10;99.90
9658;DHT22;4867;48.112;11.622;2023-02-16T04:58:45;-1.10;99.90
9658;DHT22;4867;48.112;11.622;2023-02-16T05:01:23;-1.10;99.90
9658;DHT22;4867;48.112;11.622;2023-02-16T05:03:50;-1.10;99.90
9658;DHT22;4867;48.112;11.622;2023-02-16T05:06:19;-1.20;99.90
9658;DHT22;4867;48.112;11.622;2023-02-16T05:08:46;-1.20;99.90
9658;DHT22;4867;48.112;11.622;2023-02-16T05:11:13;-1.20;99.90
9658;DHT22;4867;48.112;11.622;2023-02-16T05:13:59;-1.20;99.90
9658;DHT22;4867;48.112;11.622;2023-02-16T05:16:45;-1.20;99.90
9658;DHT22;4867;48.112;11.622;2023-02-16T05:19:13;-1.20;99.90
9658;DHT22;4867;48.112;11.622;2023-02-16T05:21:40;-1.20;99.90
9658;DHT22;4867;48.112;11.622;2023-02-16T05:24:09;-1.20;99.90
9658;DHT22;4867;48.112;11.622;2023-02-16T05:26:38;-1.20;99.90
9658;DHT22;4867;48.112;11.622;2023-02-16T05:29:06;-1.20;99.90
9658;DHT22;4867;48.112;11.622;2023-02-16T05:31:33;-1.20;99.90
9658;DHT22;4867;48.112;11.622;2023-02-16T05:34:00;-1.20;99.90
9658;DHT22;4867;48.112;11.622;2023-02-16T05:36:28;-1.30;99.90
9658;DHT22;4867;48.112;11.622;2023-02-16T05:38:55;-1.30;99.90
9658;DHT22;4867;48.112;11.622;2023-02-16T05:41:22;-1.30;99.90
9658;DHT22;4867;48.112;11.622;2023-02-16T05:43:51;-1.30;99.90
9658;DHT22;4867;48.112;11.622;2023-02-16T05:46:23;-1.20;99.90
9658;DHT22;4867;48.112;11.622;2023-02-16T05:48:51;-1.20;99.90
9658;DHT22;4867;48.112;11.622;2023-02-16T05:51:19;-1.20;99.90
9658;DHT22;4867;48.112;11.622;2023-02-16T05:53:46;-1.20;99.90
9658;DHT22;4867;48.112;11.622;2023-02-16T05:56:13;-1.20;99.90
9658;DHT22;4867;48.112;11.622;2023-02-16T05:58:41;-1.20;99.90
9658;DHT22;4867;48.112;11.622;2023-02-16T06:01:08;-1.20;99.90
9658;DHT22;4867;48.112;11.622;2023-02-16T06:03:35;-1.20;99.90
9658;DHT22;4867;48.112;11.622;2023-02-16T06:06:04;-1.10;99.90
9658;DHT22;4867;48.112;11.622;2023-02-16T06:08:32;-1.10;99.90
9658;DHT22;4867;48.112;11.622;2023-02-16T06:10:59;-1.10;99.90
9658;DHT22;4867;48.112;11.622;2023-02-16T06:13:27;-1.10;99.90
9658;DHT22;4867;48.112;11.622;2023-02-16T06:15:55;-1.10;99.90
9658;DHT22;4867;48.112;11.622;2023-02-16T06:18:23;-1.10;99.90
9658;DHT22;4867;48.112;11.622;2023-02-16T06:20:51;-1.10;99.90
9658;DHT22;4867;48.112;11.622;2023-02-16T06:23:18;-1.10;99.90
9658;DHT22;4867;48.112;11.622;2023-02-16T06:25:48;-1.10;99.90
9658;DHT22;4867;48.112;11.622;2023-02-16T06:28:17;-1.10;99.90
9658;DHT22;4867;48.112;11.622;2023-02-16T06:30:44;-1.10;99.90
9658;DHT22;4867;48.112;11.622;2023-02-16T06:33:11;-1.10;99.90
9658;DHT22;4867;48.112;11.622;2023-02-16T06:35:39;-1.00;99.90
9658;DHT22;4867;48.112;11.622;2023-02-16T06:38:06;-1.00;99.90
9658;DHT22;4867;48.112;11.622;2023-02-16T06:40:33;-0.90;99.90
9658;DHT22;4867;48.112;11.622;2023-02-16T06:43:00;-0.80;99.90
9658;DHT22;4867;48.112;11.622;2023-02-16T06:45:27;-0.80;99.90
9658;DHT22;4867;48.112;11.622;2023-02-16T06:47:55;-0.70;99.90
9658;DHT22;4867;48.112;11.622;2023-02-16T06:50:22;-0.70;99.90
9658;DHT22;4867;48.112;11.622;2023-02-16T06:52:49;-0.70;99.90
9658;DHT22;4867;48.112;11.622;2023-02-16T06:55:16;-0.60;99.90
9658;DHT22;4867;48.112;11.622;2023-02-16T06:57:43;-0.50;99.90
9658;DHT22;4867;48.112;11.622;2023-02-16T07:00:11;-0.40;99.90
9658;DHT22;4867;48.112;11.622;2023-02-16T07:02:39;-0.30;99.90
9658;DHT22;4867;48.112;11.622;2023-02-16T07:05:06;-0.20;99.90
9658;DHT22;4867;48.112;11.622;2023-02-16T07:07:33;-0.10;99.90
9658;DHT22;4867;48.112;11.622;2023-02-16T07:10:01;0.00;99.90
9658;DHT22;4867;48.112;11.622;2023-02-16T07:12:28;0.10;99.90
9658;DHT22;4867;48.112;11.622;2023-02-16T07:14:56;0.20;99.90
9658;DHT22;4867;48.112;11.622;2023-02-16T07:17:23;0.30;99.90
9658;DHT22;4867;48.112;11.622;2023-02-16T07:19:50;0.50;99.90
9658;DHT22;4867;48.112;11.622;2023-02-16T07:22:17;0.60;99.90
9658;DHT22;4867;48.112;11.622;2023-02-16T07:24:44;0.70;99.90
9658;DHT22;4867;48.112;11.622;2023-02-16T07:27:11;0.90;99.90
9658;DHT22;4867;48.112;11.622;2023-02-16T07:29:39;1.00;99.90
9658;DHT22;4867;48.112;11.622;2023-02-16T07:32:06;1.10;99.90
9658;DHT22;4867;48.112;11.622;2023-02-16T07:34:34;1.20;99.90
9658;DHT22;4867;48.112;11.622;2023-02-16T07:37:01;1.40;99.90
9658;DHT22;4867;48.112;11.622;2023-02-16T07:39:28;1.50;99.90
9658;DHT22;4867;48.112;11.622;2023-02-16T07:41:56;1.60;99.90
9658;DHT22;4867;48.112;11.622;2023-02-16T07:44:25;1.70;99.90
9658;DHT22;4867;48.112;11.622;2023-02-16T07:46:52;1.80;99.90
9658;DHT22;4867;48.112;11.622;2023-02-16T07:49:19;1.90;99.90
9658;DHT22;4867;48.112;11.622;2023-02-16T07:51:47;2.10;99.90
9658;DHT22;4867;48.112;11.622;2023-02-16T07:54:14;2.20;99.90
9658;DHT22;4867;48.112;11.622;2023-02-16T07:56:41;2.30;99.90
9658;DHT22;4867;48.112;11.622;2023-02-16T07:59:08;2.40;99.90
9658;DHT22;4867;48.112;11.622;2023-02-16T08:01:36;2.50;99.90
9658;DHT22;4867;48.112;11.622;2023-02-16T08:04:03;2.60;99.90
9658;DHT22;4867;48.112;11.622;2023-02-16T08:06:35;2.70;99.90
9658;DHT22;4867;48.112;11.622;2023-02-16T08:09:03;2.90;99.90
9658;DHT22;4867;48.112;11.622;2023-02-16T08:11:30;3.00;99.90
9658;DHT22;4867;48.112;11.622;2023-02-16T08:13:58;3.10;99.90
9658;DHT22;4867;48.112;11.622;2023-02-16T08:16:27;3.20;99.90
9658;DHT22;4867;48.112;11.622;2023-02-16T08:18:57;3.40;99.90
9658;DHT22;4867;48.112;11.622;2023-02-16T08:21:28;3.50;99.90
9658;DHT22;4867;48.112;11.622;2023-02-16T08:24:06;3.70;99.90
9658;DHT22;4867;48.112;11.622;2023-02-16T08:26:39;3.80;99.90
9658;DHT22;4867;48.112;11.622;2023-02-16T08:29:07;4.00;99.90
9658;DHT22;4867;48.112;11.622;2023-02-16T08:31:41;4.10;99.90
9658;DHT22;4867;48.112;11.622;2023-02-16T08:34:09;4.30;99.90
9658;DHT22;4867;48.112;11.622;2023-02-16T08:36:37;4.40;99.90
9658;DHT22;4867;48.112;11.622;2023-02-16T08:39:19;4.60;99.90
9658;DHT22;4867;48.112;11.622;2023-02-16T08:41:48;4.70;99.90
9658;DHT22;4867;48.112;11.622;2023-02-16T08:44:16;4.90;99.90
9658;DHT22;4867;48.112;11.622;2023-02-16T08:46:45;5.00;99.90
9658;DHT22;4867;48.112;11.622;2023-02-16T08:49:15;5.10;99.90
9658;DHT22;4867;48.112;11.622;2023-02-16T08:51:46;5.50;99.90
9658;DHT22;4867;48.112;11.622;2023-02-16T08:54:19;5.50;99.90
9658;DHT22;4867;48.112;11.622;2023-02-16T08:56:47;5.60;99.90
9658;DHT22;4867;48.112;11.622;2023-02-16T08:59:18;5.80;99.90
9658;DHT22;4867;48.112;11.622;2023-02-16T09:01:46;5.80;99.90
9658;DHT22;4867;48.112;11.622;2023-02-16T09:04:14;6.00;99.90
9658;DHT22;4867;48.112;11.622;2023-02-16T09:06:44;6.10;99.90
9658;DHT22;4867;48.112;11.622;2023-02-16T09:09:11;6.20;99.90
9658;DHT22;4867;48.112;11.622;2023-02-16T09:11:39;6.40;99.90
9658;DHT22;4867;48.112;11.622;2023-02-16T09:14:07;6.40;99.90
9658;DHT22;4867;48.112;11.622;2023-02-16T09:16:36;6.60;99.90
9658;DHT22;4867;48.112;11.622;2023-02-16T09:19:05;6.60;99.90
9658;DHT22;4867;48.112;11.622;2023-02-16T09:21:33;6.70;99.90
9658;DHT22;4867;48.112;11.622;2023-02-16T09:24:01;6.90;99.90
9658;DHT22;4867;48.112;11.622;2023-02-16T09:26:31;7.00;99.90
9658;DHT22;4867;48.112;11.622;2023-02-16T09:29:00;7.10;99.90
9658;DHT22;4867;48.112;11.622;2023-02-16T09:31:33;7.20;99.90
9658;DHT22;4867;48.112;11.622;2023-02-16T09:34:15;7.30;99.90
9658;DHT22;4867;48.112;11.622;2023-02-16T09:36:44;7.30;99.90
9658;DHT22;4867;48.112;11.622;2023-02-16T09:39:11;7.50;99.90
9658;DHT22;4867;48.112;11.622;2023-02-16T09:47:21;7.80;99.90
9658;DHT22;4867;48.112;11.622;2023-02-16T09:49:50;8.00;99.90
9658;DHT22;4867;48.112;11.622;2023-02-16T09:52:37;8.10;99.90
9658;DHT22;4867;48.112;11.622;2023-02-16T09:55:15;8.30;99.90
9658;DHT22;4867;48.112;11.622;2023-02-16T10:05:49;8.90;99.90
9658;DHT22;4867;48.112;11.622;2023-02-16T10:08:24;8.90;99.90
9658;DHT22;4867;48.112;11.622;2023-02-16T10:14:07;9.20;99.90
9658;DHT22;4867;48.112;11.622;2023-02-16T10:16:47;9.40;99.90
9658;DHT22;4867;48.112;11.622;2023-02-16T10:22:43;9.70;99.90
9658;DHT22;4867;48.112;11.622;2023-02-16T10:25:22;9.70;99.90
9658;DHT22;4867;48.112;11.622;2023-02-16T10:28:01;9.70;99.90
9658;DHT22;4867;48.112;11.622;2023-02-16T10:30:31;9.80;99.90
9658;DHT22;4867;48.112;11.622;2023-02-16T10:33:13;9.70;99.90
9658;DHT22;4867;48.112;11.622;2023-02-16T10:35:45;9.70;99.90
9658;DHT22;4867;48.112;11.622;2023-02-16T10:38:24;9.80;99.90
9658;DHT22;4867;48.112;11.622;2023-02-16T10:41:16;9.80;99.90
9658;DHT22;4867;48.112;11.622;2023-02-16T10:43:57;9.90;99.90
9658;DHT22;4867;48.112;11.622;2023-02-16T10:46:35;10.10;99.90
9658;DHT22;4867;48.112;11.622;2023-02-16T10:49:03;10.10;99.90
9658;DHT22;4867;48.112;11.622;2023-02-16T10:51:35;10.20;99.90
9658;DHT22;4867;48.112;11.622;2023-02-16T10:54:07;10.30;99.90
9658;DHT22;4867;48.112;11.622;2023-02-16T10:59:31;10.60;99.90
9658;DHT22;4867;48.112;11.622;2023-02-16T11:02:00;10.70;99.90
9658;DHT22;4867;48.112;11.622;2023-02-16T11:07:17;10.70;99.90
9658;DHT22;4867;48.112;11.622;2023-02-16T11:09:47;10.80;99.90
9658;DHT22;4867;48.112;11.622;2023-02-16T11:12:30;10.80;99.90
9658;DHT22;4867;48.112;11.622;2023-02-16T11:15:22;10.80;99.90
9658;DHT22;4867;48.112;11.622;2023-02-16T11:18:00;10.80;99.90
9658;DHT22;4867;48.112;11.622;2023-02-16T11:20:34;10.90;99.90
9658;DHT22;4867;48.112;11.622;2023-02-16T11:23:26;11.00;99.90
9658;DHT22;4867;48.112;11.622;2023-02-16T11:26:06;11.00;99.90
9658;DHT22;4867;48.112;11.622;2023-02-16T11:28:42;11.20;99.90
9658;DHT22;4867;48.112;11.622;2023-02-16T11:34:03;11.40;99.90
9658;DHT22;4867;48.112;11.622;2023-02-16T11:39:23;11.40;99.90
9658;DHT22;4867;48.112;11.622;2023-02-16T11:41:52;11.40;99.90
9658;DHT22;4867;48.112;11.622;2023-02-16T11:44:28;11.40;99.90
9658;DHT22;4867;48.112;11.622;2023-02-16T11:46:59;11.40;99.90
9658;DHT22;4867;48.112;11.622;2023-02-16T11:49:38;11.30;99.90
9658;DHT22;4867;48.112;11.622;2023-02-16T11:52:19;11.30;99.90
9658;DHT22;4867;48.112;11.622;2023-02-16T11:54:55;11.40;99.90
9658;DHT22;4867;48.112;11.622;2023-02-16T11:57:34;11.50;99.90
9658;DHT22;4867;48.112;11.622;2023-02-16T12:00:14;11.50;99.90
9658;DHT22;4867;48.112;11.622;2023-02-16T12:19:47;11.70;99.90
9658;DHT22;4867;48.112;11.622;2023-02-16T12:22:25;11.80;99.90
9658;DHT22;4867;48.112;11.622;2023-02-16T12:25:30;11.80;99.90
9658;DHT22;4867;48.112;11.622;2023-02-16T12:31:16;11.90;99.90
9658;DHT22;4867;48.112;11.622;2023-02-16T12:33:58;12.00;99.90
9658;DHT22;4867;48.112;11.622;2023-02-16T12:37:03;12.00;99.90
9658;DHT22;4867;48.112;11.622;2023-02-16T12:45:37;12.00;98.30
9658;DHT22;4867;48.112;11.622;2023-02-16T12:50:58;12.20;99.90
9658;DHT22;4867;48.112;11.622;2023-02-16T12:53:42;12.20;97.90
9658;DHT22;4867;48.112;11.622;2023-02-16T12:56:31;12.20;97.20
9658;DHT22;4867;48.112;11.622;2023-02-16T12:59:26;12.30;97.40
9658;DHT22;4867;48.112;11.622;2023-02-16T13:01:57;12.20;97.80
9658;DHT22;4867;48.112;11.622;2023-02-16T13:04:41;12.30;98.40
9658;DHT22;4867;48.112;11.622;2023-02-16T13:07:20;12.40;99.10
9658;DHT22;4867;48.112;11.622;2023-02-16T13:09:56;12.40;96.70
9658;DHT22;4867;48.112;11.622;2023-02-16T13:12:35;12.60;98.40
9658;DHT22;4867;48.112;11.622;2023-02-16T13:15:13;12.60;98.10
9658;DHT22;4867;48.112;11.622;2023-02-16T13:18:04;12.60;98.60
9658;DHT22;4867;48.112;11.622;2023-02-16T13:20:32;12.70;97.80
9658;DHT22;4867;48.112;11.622;2023-02-16T13:23:26;12.60;98.30
9658;DHT22;4867;48.112;11.622;2023-02-16T13:26:21;12.60;97.90
9658;DHT22;4867;48.112;11.622;2023-02-16T13:45:54;12.70;95.10
9658;DHT22;4867;48.112;11.622;2023-02-16T13:48:25;12.80;96.70
9658;DHT22;4867;48.112;11.622;2023-02-16T13:50:59;12.70;95.40
9658;DHT22;4867;48.112;11.622;2023-02-16T13:53:36;12.70;95.70
9658;DHT22;4867;48.112;11.622;2023-02-16T14:02:00;13.00;95.80
9658;DHT22;4867;48.112;11.622;2023-02-16T14:19:51;13.00;94.70
9658;DHT22;4867;48.112;11.622;2023-02-16T14:22:28;13.00;93.10
9658;DHT22;4867;48.112;11.622;2023-02-16T14:24:59;13.10;95.40
9658;DHT22;4867;48.112;11.622;2023-02-16T14:27:57;13.20;93.50
9658;DHT22;4867;48.112;11.622;2023-02-16T14:38:36;13.30;94.60
9658;DHT22;4867;48.112;11.622;2023-02-16T14:41:12;13.30;94.40
9658;DHT22;4867;48.112;11.622;2023-02-16T14:46:47;13.30;94.10
9658;DHT22;4867;48.112;11.622;2023-02-16T14:49:25;13.20;93.70
9658;DHT22;4867;48.112;11.622;2023-02-16T14:55:10;13.10;92.90
9658;DHT22;4867;48.112;11.622;2023-02-16T15:03:16;13.10;93.40
9658;DHT22;4867;48.112;11.622;2023-02-16T15:06:00;13.10;93.80
9658;DHT22;4867;48.112;11.622;2023-02-16T15:08:33;13.10;92.70
9658;DHT22;4867;48.112;11.622;2023-02-16T15:11:14;13.00;92.90
9658;DHT22;4867;48.112;11.622;2023-02-16T15:13:43;13.00;91.20
9658;DHT22;4867;48.112;11.622;2023-02-16T15:16:11;13.00;93.80
9658;DHT22;4867;48.112;11.622;2023-02-16T15:18:45;13.00;93.60
9658;DHT22;4867;48.112;11.622;2023-02-16T15:21:24;13.00;93.60
9658;DHT22;4867;48.112;11.622;2023-02-16T15:23:58;12.90;92.90
9658;DHT22;4867;48.112;11.622;2023-02-16T15:26:32;13.00;93.70
9658;DHT22;4867;48.112;11.622;2023-02-16T15:29:20;12.90;93.80
9658;DHT22;4867;48.112;11.622;2023-02-16T15:31:48;12.80;92.10
9658;DHT22;4867;48.112;11.622;2023-02-16T15:34:30;12.70;92.50
9658;DHT22;4867;48.112;11.622;2023-02-16T15:37:00;12.50;91.50
9658;DHT22;4867;48.112;11.622;2023-02-16T15:39:32;12.50;91.90
9658;DHT22;4867;48.112;11.622;2023-02-16T15:42:20;12.40;92.60
9658;DHT22;4867;48.112;11.622;2023-02-16T15:44:49;12.40;92.20
9658;DHT22;4867;48.112;11.622;2023-02-16T15:47:24;12.30;92.20
9658;DHT22;4867;48.112;11.622;2023-02-16T15:49:53;12.20;90.90
9658;DHT22;4867;48.112;11.622;2023-02-16T15:52:34;12.10;91.10
9658;DHT22;4867;48.112;11.622;2023-02-16T15:55:04;12.00;89.70
9658;DHT22;4867;48.112;11.622;2023-02-16T15:57:35;11.90;91.80
9658;DHT22;4867;48.112;11.622;2023-02-16T16:00:12;11.90;90.70
9658;DHT22;4867;48.112;11.622;2023-02-16T16:02:48;11.80;90.80
9658;DHT22;4867;48.112;11.622;2023-02-16T16:05:27;11.80;91.10
9658;DHT22;4867;48.112;11.622;2023-02-16T16:07:56;11.70;90.40
9658;DHT22;4867;48.112;11.622;2023-02-16T16:10:27;11.70;91.60
9658;DHT22;4867;48.112;11.622;2023-02-16T16:13:05;11.60;90.70
9658;DHT22;4867;48.112;11.622;2023-02-16T16:15:37;11.50;90.60
9658;DHT22;4867;48.112;11.622;2023-02-16T16:21:00;11.40;91.00
9658;DHT22;4867;48.112;11.622;2023-02-16T16:23:29;11.30;91.40
9658;DHT22;4867;48.112;11.622;2023-02-16T16:25:56;11.30;91.50
9658;DHT22;4867;48.112;11.622;2023-02-16T16:31:16;11.20;92.00
9658;DHT22;4867;48.112;11.622;2023-02-16T16:36:27;11.10;92.10
9658;DHT22;4867;48.112;11.622;2023-02-16T16:41:46;10.90;92.50
9658;DHT22;4867;48.112;11.622;2023-02-16T16:44:40;10.80;92.70
9658;DHT22;4867;48.112;11.622;2023-02-16T16:47:31;10.80;92.40
9658;DHT22;4867;48.112;11.622;2023-02-16T16:57:46;10.50;92.40
9658;DHT22;4867;48.112;11.622;2023-02-16T17:00:15;10.50;92.60
9658;DHT22;4867;48.112;11.622;2023-02-16T17:02:43;10.40;92.90
9658;DHT22;4867;48.112;11.622;2023-02-16T17:05:11;10.40;92.90
9658;DHT22;4867;48.112;11.622;2023-02-16T17:07:38;10.40;92.50
9658;DHT22;4867;48.112;11.622;2023-02-16T17:10:06;10.20;92.80
9658;DHT22;4867;48.112;11.622;2023-02-16T17:12:34;10.30;92.70
9658;DHT22;4867;48.112;11.622;2023-02-16T17:15:02;10.20;92.80
9658;DHT22;4867;48.112;11.622;2023-02-16T17:17:30;10.20;92.80
9658;DHT22;4867;48.112;11.622;2023-02-16T17:19:57;10.20;92.70
9658;DHT22;4867;48.112;11.622;2023-02-16T17:22:25;10.10;93.10
9658;DHT22;4867;48.112;11.622;2023-02-16T17:24:52;10.10;93.20
9658;DHT22;4867;48.112;11.622;2023-02-16T17:27:19;10.00;93.30
9658;DHT22;4867;48.112;11.622;2023-02-16T17:29:46;10.00;93.40
9658;DHT22;4867;48.112;11.622;2023-02-16T17:32:13;10.00;93.50
9658;DHT22;4867;48.112;11.622;2023-02-16T17:34:41;9.90;93.90
9658;DHT22;4867;48.112;11.622;2023-02-16T17:37:09;9.90;93.70
9658;DHT22;4867;48.112;11.622;2023-02-16T17:39:36;9.90;93.80
9658;DHT22;4867;48.112;11.622;2023-02-16T17:42:05;9.80;93.90
9658;DHT22;4867;48.112;11.622;2023-02-16T17:44:33;9.80;93.80
9658;DHT22;4867;48.112;11.622;2023-02-16T17:47:01;9.80;94.30
9658;DHT22;4867;48.112;11.622;2023-02-16T17:49:28;9.70;94.20
9658;DHT22;4867;48.112;11.622;2023-02-16T17:51:55;9.80;94.40
9658;DHT22;4867;48.112;11.622;2023-02-16T17:54:22;9.70;94.70
9658;DHT22;4867;48.112;11.622;2023-02-16T17:56:50;9.50;94.90
9658;DHT22;4867;48.112;11.622;2023-02-16T17:59:17;9.60;94.80
9658;DHT22;4867;48.112;11.622;2023-02-16T18:01:44;9.50;95.10
9658;DHT22;4867;48.112;11.622;2023-02-16T18:04:11;9.50;95.20
9658;DHT22;4867;48.112;11.622;2023-02-16T18:06:39;9.50;95.40
9658;DHT22;4867;48.112;11.622;2023-02-16T18:09:06;9.50;95.20
9658;DHT22;4867;48.112;11.622;2023-02-16T18:11:33;9.50;95.40
9658;DHT22;4867;48.112;11.622;2023-02-16T18:14:01;9.50;95.60
9658;DHT22;4867;48.112;11.622;2023-02-16T18:16:28;9.50;95.70
9658;DHT22;4867;48.112;11.622;2023-02-16T18:18:55;9.50;95.90
9658;DHT22;4867;48.112;11.622;2023-02-16T18:21:24;9.50;96.00
9658;DHT22;4867;48.112;11.622;2023-02-16T18:23:51;9.40;96.10
9658;DHT22;4867;48.112;11.622;2023-02-16T18:26:18;9.40;96.20
9658;DHT22;4867;48.112;11.622;2023-02-16T18:28:45;9.40;96.50
9658;DHT22;4867;48.112;11.622;2023-02-16T18:31:13;9.40;96.70
9658;DHT22;4867;48.112;11.622;2023-02-16T18:33:41;9.40;96.80
9658;DHT22;4867;48.112;11.622;2023-02-16T18:36:08;9.40;96.70
9658;DHT22;4867;48.112;11.622;2023-02-16T18:38:36;9.40;96.90
9658;DHT22;4867;48.112;11.622;2023-02-16T18:41:03;9.40;97.00
9658;DHT22;4867;48.112;11.622;2023-02-16T18:43:30;9.30;97.10
9658;DHT22;4867;48.112;11.622;2023-02-16T18:45:57;9.30;97.40
9658;DHT22;4867;48.112;11.622;2023-02-16T18:48:25;9.30;97.60
9658;DHT22;4867;48.112;11.622;2023-02-16T18:50:52;9.20;97.90
9658;DHT22;4867;48.112;11.622;2023-02-16T18:53:19;9.20;98.10
9658;DHT22;4867;48.112;11.622;2023-02-16T18:55:46;9.10;97.80
9658;DHT22;4867;48.112;11.622;2023-02-16T18:58:14;9.00;97.90
9658;DHT22;4867;48.112;11.622;2023-02-16T19:00:41;9.00;98.20
9658;DHT22;4867;48.112;11.622;2023-02-16T19:03:08;8.90;98.10
9658;DHT22;4867;48.112;11.622;2023-02-16T19:05:36;9.00;98.10
9658;DHT22;4867;48.112;11.622;2023-02-16T19:08:03;8.90;98.40
9658;DHT22;4867;48.112;11.622;2023-02-16T19:10:31;8.80;98.30
9658;DHT22;4867;48.112;11.622;2023-02-16T19:12:58;8.90;98.30
9658;DHT22;4867;48.112;11.622;2023-02-16T19:15:28;8.80;98.30
9658;DHT22;4867;48.112;11.622;2023-02-16T19:17:55;8.80;98.10